createdAt,value
2022-07-28T00:00:21.356Z,13.00
2022-07-28T00:01:21.341Z,12.97
2022-07-28T00:02:21.425Z,12.97
2022-07-28T00:03:21.395Z,12.97
2022-07-28T00:04:21.321Z,12.97
2022-07-28T00:05:21.281Z,12.95
2022-07-28T00:06:21.299Z,12.95
2022-07-28T00:07:21.257Z,12.94
2022-07-28T00:08:21.257Z,12.94
2022-07-28T00:09:21.278Z,12.95
2022-07-28T00:10:21.282Z,12.94
2022-07-28T00:11:21.238Z,12.95
2022-07-28T00:12:21.209Z,12.94
2022-07-28T00:13:21.210Z,12.97
2022-07-28T00:14:21.225Z,12.95
2022-07-28T00:15:21.209Z,12.95
2022-07-28T00:16:21.248Z,12.95
2022-07-28T00:17:21.161Z,12.94
2022-07-28T00:18:21.152Z,12.93
2022-07-28T00:19:21.138Z,12.93
2022-07-28T00:20:21.137Z,12.91
2022-07-28T00:21:21.122Z,12.93
2022-07-28T00:22:21.100Z,12.93
2022-07-28T00:23:21.091Z,12.91
2022-07-28T00:24:21.101Z,12.91
2022-07-28T00:25:21.094Z,12.90
2022-07-28T00:26:21.053Z,12.87
2022-07-28T00:27:21.054Z,12.87
2022-07-28T00:28:21.029Z,12.86
2022-07-28T00:29:21.529Z,12.85
2022-07-28T00:30:21.009Z,12.85
2022-07-28T00:31:21.121Z,12.82
2022-07-28T00:32:21.052Z,12.82
2022-07-28T00:33:20.982Z,12.80
2022-07-28T00:34:20.955Z,12.78
2022-07-28T00:35:25.191Z,12.79
2022-07-28T00:36:24.698Z,12.76
2022-07-28T00:37:20.940Z,12.75
2022-07-28T00:38:20.913Z,12.75
2022-07-28T00:39:20.922Z,12.73
2022-07-28T00:40:20.910Z,12.72
2022-07-28T00:41:20.888Z,12.72
2022-07-28T00:42:20.917Z,12.70
2022-07-28T00:43:20.873Z,12.70
2022-07-28T00:44:20.842Z,12.70
2022-07-28T00:45:20.862Z,12.67
2022-07-28T00:46:20.907Z,12.67
2022-07-28T00:47:20.842Z,12.65
2022-07-28T00:48:20.797Z,12.64
2022-07-28T00:49:20.864Z,12.62
2022-07-28T00:50:20.781Z,12.61
2022-07-28T00:51:20.804Z,12.62
2022-07-28T00:52:20.753Z,12.61
2022-07-28T00:53:20.759Z,12.58
2022-07-28T00:54:20.733Z,12.57
2022-07-28T00:55:20.722Z,12.57
2022-07-28T00:56:20.718Z,12.55
2022-07-28T00:57:20.714Z,12.53
2022-07-28T00:58:20.722Z,12.49
2022-07-28T00:59:20.694Z,12.47
2022-07-28T01:00:20.723Z,12.46
2022-07-28T01:01:20.810Z,12.46
2022-07-28T01:02:20.901Z,12.45
2022-07-28T01:03:20.842Z,12.45
2022-07-28T01:04:20.823Z,12.45
2022-07-28T01:05:43.603Z,12.45
2022-07-28T01:06:21.626Z,12.43
2022-07-28T01:07:20.701Z,12.45
2022-07-28T01:08:20.566Z,12.46
2022-07-28T01:09:20.579Z,12.47
2022-07-28T01:10:20.566Z,12.47
2022-07-28T01:11:20.554Z,12.47
2022-07-28T01:12:20.545Z,12.47
2022-07-28T01:13:20.526Z,12.46
2022-07-28T01:14:20.523Z,12.45
2022-07-28T01:15:20.514Z,12.45
2022-07-28T01:16:23.218Z,12.45
2022-07-28T01:17:20.494Z,12.43
2022-07-28T01:18:20.468Z,12.42
2022-07-28T01:19:20.462Z,12.42
2022-07-28T01:20:20.450Z,12.40
2022-07-28T01:21:20.434Z,12.39
2022-07-28T01:22:20.626Z,12.35
2022-07-28T01:23:20.418Z,12.29
2022-07-28T01:24:20.414Z,12.29
2022-07-28T01:25:20.398Z,12.27
2022-07-28T01:26:20.398Z,12.24
2022-07-28T01:27:20.366Z,12.22
2022-07-28T01:28:20.346Z,12.20
2022-07-28T01:29:20.347Z,12.20
2022-07-28T01:30:20.338Z,12.18
2022-07-28T01:31:21.658Z,12.13
2022-07-28T01:32:20.378Z,12.15
2022-07-28T01:33:20.294Z,12.12
2022-07-28T01:34:20.279Z,12.10
2022-07-28T01:35:20.282Z,12.10
2022-07-28T01:36:20.267Z,12.10
2022-07-28T01:37:20.246Z,12.09
2022-07-28T01:38:20.252Z,12.09
2022-07-28T01:39:20.226Z,12.07
2022-07-28T01:40:20.219Z,12.06
2022-07-28T01:41:20.215Z,12.04
2022-07-28T01:42:20.206Z,12.06
2022-07-28T01:43:20.186Z,12.07
2022-07-28T01:44:20.169Z,12.10
2022-07-28T01:45:20.167Z,12.09
2022-07-28T01:46:20.202Z,12.07
2022-07-28T01:47:20.146Z,12.12
2022-07-28T01:48:20.147Z,12.12
2022-07-28T01:49:20.299Z,12.15
2022-07-28T01:50:20.108Z,12.15
2022-07-28T01:51:20.100Z,12.20
2022-07-28T01:52:20.076Z,12.21
2022-07-28T01:53:20.101Z,12.21
2022-07-28T01:54:20.059Z,12.24
2022-07-28T01:55:20.059Z,12.22
2022-07-28T01:56:20.045Z,12.24
2022-07-28T01:57:20.030Z,12.27
2022-07-28T01:58:20.022Z,12.28
2022-07-28T01:59:20.006Z,12.29
2022-07-28T02:00:19.999Z,12.29
2022-07-28T02:01:20.010Z,12.31
2022-07-28T02:02:19.967Z,12.32
2022-07-28T02:03:19.990Z,12.31
2022-07-28T02:04:19.946Z,12.31
2022-07-28T02:05:22.129Z,12.32
2022-07-28T02:06:19.931Z,12.31
2022-07-28T02:07:19.923Z,12.32
2022-07-28T02:08:19.931Z,12.31
2022-07-28T02:09:19.913Z,12.31
2022-07-28T02:10:19.871Z,12.29
2022-07-28T02:11:19.883Z,12.31
2022-07-28T02:12:19.858Z,12.29
2022-07-28T02:13:19.844Z,12.31
2022-07-28T02:14:19.847Z,12.31
2022-07-28T02:15:19.820Z,12.32
2022-07-28T02:16:19.844Z,12.32
2022-07-28T02:17:19.812Z,12.31
2022-07-28T02:18:19.803Z,12.31
2022-07-28T02:19:19.795Z,12.28
2022-07-28T02:20:19.759Z,12.29
2022-07-28T02:21:19.761Z,12.29
2022-07-28T02:22:19.740Z,12.31
2022-07-28T02:23:19.823Z,12.31
2022-07-28T02:24:19.744Z,12.31
2022-07-28T02:25:19.712Z,12.35
2022-07-28T02:26:19.701Z,12.37
2022-07-28T02:27:19.687Z,12.37
2022-07-28T02:28:19.671Z,12.39
2022-07-28T02:29:40.801Z,12.39
2022-07-28T02:30:20.664Z,12.39
2022-07-28T02:31:19.687Z,12.39
2022-07-28T02:32:27.730Z,12.39
2022-07-28T02:33:32.288Z,12.39
2022-07-28T02:34:22.286Z,12.39
2022-07-28T02:35:19.603Z,12.37
2022-07-28T02:36:19.584Z,12.36
2022-07-28T02:37:19.584Z,12.35
2022-07-28T02:38:20.364Z,12.32
2022-07-28T02:39:19.564Z,12.29
2022-07-28T02:40:19.533Z,12.28
2022-07-28T02:41:19.537Z,12.27
2022-07-28T02:42:19.513Z,12.27
2022-07-28T02:43:19.517Z,12.25
2022-07-28T02:44:19.512Z,12.24
2022-07-28T02:45:19.506Z,12.22
2022-07-28T02:46:19.517Z,12.21
2022-07-28T02:47:19.465Z,12.21
2022-07-28T02:48:19.444Z,12.18
2022-07-28T02:49:19.524Z,12.15
2022-07-28T02:50:19.432Z,12.12
2022-07-28T02:51:19.416Z,12.09
2022-07-28T02:52:19.404Z,12.07
2022-07-28T02:53:19.403Z,12.04
2022-07-28T02:54:19.384Z,12.03
2022-07-28T02:55:19.435Z,12.02
2022-07-28T02:56:19.352Z,12.02
2022-07-28T02:57:19.354Z,12.00
2022-07-28T02:58:19.388Z,11.97
2022-07-28T02:59:19.453Z,11.97
2022-07-28T03:00:19.345Z,11.95
2022-07-28T03:01:19.375Z,11.94
2022-07-28T03:02:19.277Z,11.94
2022-07-28T03:03:19.285Z,11.91
2022-07-28T03:04:19.272Z,11.90
2022-07-28T03:05:19.359Z,11.88
2022-07-28T03:06:19.253Z,11.87
2022-07-28T03:07:20.234Z,11.88
2022-07-28T03:08:19.216Z,11.86
2022-07-28T03:09:19.313Z,11.86
2022-07-28T03:10:19.222Z,11.86
2022-07-28T03:11:20.204Z,11.84
2022-07-28T03:12:19.252Z,11.81
2022-07-28T03:13:19.177Z,11.80
2022-07-28T03:14:19.159Z,11.78
2022-07-28T03:15:19.157Z,11.77
2022-07-28T03:16:19.192Z,11.77
2022-07-28T03:17:19.184Z,11.77
2022-07-28T03:18:19.146Z,11.73
2022-07-28T03:19:19.107Z,11.73
2022-07-28T03:20:19.103Z,11.73
2022-07-28T03:21:19.085Z,11.72
2022-07-28T03:22:19.265Z,11.68
2022-07-28T03:23:19.057Z,11.68
2022-07-28T03:24:19.036Z,11.68
2022-07-28T03:25:19.064Z,11.65
2022-07-28T03:26:19.021Z,11.62
2022-07-28T03:27:19.029Z,11.62
2022-07-28T03:28:18.997Z,11.59
2022-07-28T03:29:18.998Z,11.57
2022-07-28T03:30:18.977Z,11.57
2022-07-28T03:31:19.056Z,11.55
2022-07-28T03:32:18.977Z,11.54
2022-07-28T03:33:18.946Z,11.54
2022-07-28T03:34:18.925Z,11.50
2022-07-28T03:35:18.917Z,11.48
2022-07-28T03:36:18.910Z,11.50
2022-07-28T03:37:18.930Z,11.48
2022-07-28T03:38:18.999Z,11.47
2022-07-28T03:39:18.880Z,11.47
2022-07-28T03:40:18.859Z,11.45
2022-07-28T03:41:18.857Z,11.44
2022-07-28T03:42:18.849Z,11.43
2022-07-28T03:43:18.849Z,11.41
2022-07-28T03:44:28.955Z,11.41
2022-07-28T03:45:19.830Z,11.40
2022-07-28T03:46:18.808Z,11.40
2022-07-28T03:47:18.821Z,11.36
2022-07-28T03:48:18.770Z,11.36
2022-07-28T03:49:18.838Z,11.35
2022-07-28T03:50:18.758Z,11.33
2022-07-28T03:51:18.762Z,11.33
2022-07-28T03:52:18.726Z,11.30
2022-07-28T03:53:18.750Z,11.29
2022-07-28T03:54:18.726Z,11.27
2022-07-28T03:55:18.715Z,11.26
2022-07-28T03:56:18.696Z,11.25
2022-07-28T03:57:18.678Z,11.19
2022-07-28T03:58:18.733Z,11.22
2022-07-28T03:59:18.662Z,11.19
2022-07-28T04:00:18.622Z,11.19
2022-07-28T04:01:18.686Z,11.18
2022-07-28T04:02:18.650Z,11.15
2022-07-28T04:03:35.693Z,11.15
2022-07-28T04:04:19.602Z,11.15
2022-07-28T04:05:18.581Z,11.15
2022-07-28T04:06:18.557Z,11.14
2022-07-28T04:07:18.552Z,11.12
2022-07-28T04:08:18.542Z,11.15
2022-07-28T04:09:18.565Z,11.12
2022-07-28T04:10:18.522Z,11.12
2022-07-28T04:11:18.517Z,11.11
2022-07-28T04:12:18.493Z,11.12
2022-07-28T04:13:18.490Z,11.11
2022-07-28T04:14:19.051Z,11.10
2022-07-28T04:15:18.482Z,11.10
2022-07-28T04:16:18.537Z,11.08
2022-07-28T04:17:18.450Z,11.07
2022-07-28T04:18:18.433Z,11.08
2022-07-28T04:19:18.442Z,11.08
2022-07-28T04:20:18.402Z,11.07
2022-07-28T04:21:18.411Z,11.08
2022-07-28T04:22:18.390Z,11.07
2022-07-28T04:23:18.403Z,11.08
2022-07-28T04:24:18.672Z,11.08
2022-07-28T04:25:18.354Z,11.08
2022-07-28T04:26:18.349Z,11.08
2022-07-28T04:27:18.323Z,11.08
2022-07-28T04:28:18.322Z,11.11
2022-07-28T04:29:23.363Z,11.10
2022-07-28T04:30:19.325Z,11.11
2022-07-28T04:31:18.415Z,11.11
2022-07-28T04:32:18.283Z,11.11
2022-07-28T04:33:18.251Z,11.10
2022-07-28T04:34:18.263Z,11.10
2022-07-28T04:35:18.262Z,11.08
2022-07-28T04:36:18.251Z,11.10
2022-07-28T04:37:18.215Z,11.10
2022-07-28T04:38:18.281Z,11.11
2022-07-28T04:39:18.191Z,11.08
2022-07-28T04:40:18.196Z,11.10
2022-07-28T04:41:18.195Z,11.08
2022-07-28T04:42:18.183Z,11.10
2022-07-28T04:43:18.157Z,11.10
2022-07-28T04:44:18.303Z,11.08
2022-07-28T04:45:25.205Z,11.10
2022-07-28T04:46:18.162Z,11.08
2022-07-28T04:47:19.367Z,11.08
2022-07-28T04:48:18.097Z,11.07
2022-07-28T04:49:18.160Z,11.08
2022-07-28T04:50:18.459Z,11.10
2022-07-28T04:51:18.070Z,11.10
2022-07-28T04:52:18.077Z,11.12
2022-07-28T04:53:18.024Z,11.14
2022-07-28T04:54:20.873Z,11.12
2022-07-28T04:55:19.007Z,11.14
2022-07-28T04:56:18.015Z,11.15
2022-07-28T04:57:17.987Z,11.17
2022-07-28T04:58:17.996Z,11.19
2022-07-28T04:59:17.964Z,11.23
2022-07-28T05:00:17.976Z,11.26
2022-07-28T05:01:18.179Z,11.29
2022-07-28T05:02:17.967Z,11.30
2022-07-28T05:03:17.914Z,11.35
2022-07-28T05:04:18.617Z,11.40
2022-07-28T05:05:18.107Z,11.41
2022-07-28T05:06:17.895Z,11.44
2022-07-28T05:07:17.887Z,11.45
2022-07-28T05:08:17.867Z,11.48
2022-07-28T05:09:17.863Z,11.52
2022-07-28T05:10:17.854Z,11.59
2022-07-28T05:11:17.824Z,11.62
2022-07-28T05:12:17.835Z,11.65
2022-07-28T05:13:17.815Z,11.69
2022-07-28T05:14:17.892Z,11.72
2022-07-28T05:15:17.784Z,11.77
2022-07-28T05:16:17.822Z,11.83
2022-07-28T05:17:17.762Z,11.84
2022-07-28T05:18:17.769Z,11.84
2022-07-28T05:19:17.746Z,11.88
2022-07-28T05:20:17.738Z,11.90
2022-07-28T05:21:22.317Z,11.91
2022-07-28T05:22:18.707Z,11.94
2022-07-28T05:23:17.770Z,11.99
2022-07-28T05:24:17.822Z,12.02
2022-07-28T05:25:17.660Z,12.06
2022-07-28T05:26:17.668Z,12.06
2022-07-28T05:27:17.660Z,12.10
2022-07-28T05:28:17.644Z,12.12
2022-07-28T05:29:17.789Z,12.18
2022-07-28T05:30:17.615Z,12.21
2022-07-28T05:31:17.695Z,12.27
2022-07-28T05:32:18.172Z,12.32
2022-07-28T05:33:17.600Z,12.37
2022-07-28T05:34:17.752Z,12.42
2022-07-28T05:35:17.557Z,12.46
2022-07-28T05:36:17.568Z,12.50
2022-07-28T05:37:17.563Z,12.57
2022-07-28T05:38:17.533Z,12.61
2022-07-28T05:39:17.507Z,12.62
2022-07-28T05:40:17.509Z,12.68
2022-07-28T05:41:17.488Z,12.75
2022-07-28T05:42:17.479Z,12.76
2022-07-28T05:43:17.480Z,12.80
2022-07-28T05:44:17.631Z,12.85
2022-07-28T05:45:19.396Z,12.87
2022-07-28T05:46:17.522Z,12.93
2022-07-28T05:47:17.420Z,12.97
2022-07-28T05:48:17.435Z,12.98
2022-07-28T05:49:17.557Z,13.05
2022-07-28T05:50:17.655Z,13.09
2022-07-28T05:51:17.367Z,13.12
2022-07-28T05:52:17.367Z,13.16
2022-07-28T05:53:17.448Z,13.18
2022-07-28T05:54:17.589Z,13.22
2022-07-28T05:55:17.328Z,13.27
2022-07-28T05:56:17.328Z,13.30
2022-07-28T05:57:17.335Z,13.35
2022-07-28T05:58:17.308Z,13.37
2022-07-28T05:59:17.319Z,13.38
2022-07-28T06:00:17.293Z,13.42
2022-07-28T06:01:17.362Z,13.47
2022-07-28T06:02:17.327Z,13.52
2022-07-28T06:03:17.241Z,13.54
2022-07-28T06:04:26.866Z,13.59
2022-07-28T06:05:18.240Z,13.65
2022-07-28T06:06:17.215Z,13.71
2022-07-28T06:07:17.193Z,13.77
2022-07-28T06:08:17.192Z,13.83
2022-07-28T06:09:17.201Z,13.87
2022-07-28T06:10:17.175Z,13.92
2022-07-28T06:11:21.830Z,13.97
2022-07-28T06:12:18.141Z,14.03
2022-07-28T06:13:17.120Z,14.07
2022-07-28T06:14:17.828Z,14.11
2022-07-28T06:15:17.114Z,14.20
2022-07-28T06:16:17.153Z,14.23
2022-07-28T06:17:17.107Z,14.28
2022-07-28T06:18:17.074Z,14.32
2022-07-28T06:19:17.063Z,14.36
2022-07-28T06:20:17.055Z,14.41
2022-07-28T06:21:17.041Z,14.44
2022-07-28T06:22:17.041Z,14.50
2022-07-28T06:23:17.015Z,14.51
2022-07-28T06:24:17.328Z,14.53
2022-07-28T06:25:16.994Z,14.58
2022-07-28T06:26:17.007Z,14.63
2022-07-28T06:27:16.961Z,14.68
2022-07-28T06:28:16.956Z,14.69
2022-07-28T06:29:16.960Z,14.70
2022-07-28T06:30:16.944Z,14.73
2022-07-28T06:31:16.976Z,14.73
2022-07-28T06:32:16.914Z,14.79
2022-07-28T06:33:17.482Z,14.82
2022-07-28T06:34:17.340Z,14.85
2022-07-28T06:35:17.020Z,14.85
2022-07-28T06:36:16.878Z,14.85
2022-07-28T06:37:16.844Z,14.89
2022-07-28T06:38:16.852Z,14.89
2022-07-28T06:39:16.832Z,14.89
2022-07-28T06:40:16.865Z,14.92
2022-07-28T06:41:16.818Z,14.94
2022-07-28T06:42:16.819Z,14.94
2022-07-28T06:43:16.794Z,14.99
2022-07-28T06:44:17.252Z,14.99
2022-07-28T06:45:21.362Z,15.02
2022-07-28T06:46:17.813Z,15.04
2022-07-28T06:47:16.772Z,15.06
2022-07-28T06:48:16.751Z,15.07
2022-07-28T06:49:17.089Z,15.10
2022-07-28T06:50:25.765Z,15.11
2022-07-28T06:51:17.725Z,15.11
2022-07-28T06:52:16.706Z,15.15
2022-07-28T06:53:16.684Z,15.18
2022-07-28T06:54:16.961Z,15.19
2022-07-28T06:55:16.645Z,15.24
2022-07-28T06:56:16.854Z,15.25
2022-07-28T06:57:16.922Z,15.28
2022-07-28T06:58:16.637Z,15.29
2022-07-28T06:59:17.069Z,15.31
2022-07-28T07:00:16.609Z,15.31
2022-07-28T07:01:16.618Z,15.35
2022-07-28T07:02:16.589Z,15.35
2022-07-28T07:03:16.566Z,15.36
2022-07-28T07:04:17.185Z,15.36
2022-07-28T07:05:16.545Z,15.39
2022-07-28T07:06:16.562Z,15.39
2022-07-28T07:07:17.283Z,15.40
2022-07-28T07:08:16.518Z,15.43
2022-07-28T07:09:16.521Z,15.44
2022-07-28T07:10:16.503Z,15.47
2022-07-28T07:11:16.458Z,15.51
2022-07-28T07:12:16.479Z,15.54
2022-07-28T07:13:16.477Z,15.55
2022-07-28T07:14:16.817Z,15.58
2022-07-28T07:15:16.432Z,15.61
2022-07-28T07:16:16.480Z,15.62
2022-07-28T07:17:16.410Z,15.61
2022-07-28T07:18:16.550Z,15.61
2022-07-28T07:19:16.397Z,15.62
2022-07-28T07:20:17.178Z,15.64
2022-07-28T07:21:16.363Z,15.65
2022-07-28T07:22:16.369Z,15.65
2022-07-28T07:23:16.371Z,15.68
2022-07-28T07:24:16.724Z,15.68
2022-07-28T07:25:16.311Z,15.72
2022-07-28T07:26:16.320Z,15.72
2022-07-28T07:27:16.298Z,15.75
2022-07-28T07:28:16.309Z,15.77
2022-07-28T07:29:16.269Z,15.77
2022-07-28T07:30:16.270Z,15.79
2022-07-28T07:31:16.357Z,15.80
2022-07-28T07:32:16.242Z,15.83
2022-07-28T07:33:16.251Z,15.86
2022-07-28T07:34:16.879Z,15.91
2022-07-28T07:35:16.212Z,15.94
2022-07-28T07:36:16.203Z,15.98
2022-07-28T07:37:16.182Z,16.04
2022-07-28T07:38:16.205Z,16.05
2022-07-28T07:39:16.182Z,16.12
2022-07-28T07:40:16.161Z,16.15
2022-07-28T07:41:16.131Z,16.20
2022-07-28T07:42:16.130Z,16.23
2022-07-28T07:43:16.135Z,16.26
2022-07-28T07:44:16.552Z,16.31
2022-07-28T07:45:16.085Z,16.31
2022-07-28T07:46:16.123Z,16.33
2022-07-28T07:47:16.074Z,16.35
2022-07-28T07:48:16.084Z,16.38
2022-07-28T07:49:16.158Z,16.39
2022-07-28T07:50:16.046Z,16.41
2022-07-28T07:51:16.030Z,16.43
2022-07-28T07:52:16.014Z,16.47
2022-07-28T07:53:16.021Z,16.51
2022-07-28T07:54:16.376Z,16.56
2022-07-28T07:55:15.982Z,16.58
2022-07-28T07:56:15.981Z,16.65
2022-07-28T07:57:15.942Z,16.72
2022-07-28T07:58:15.953Z,16.76
2022-07-28T07:59:15.938Z,16.86
2022-07-28T08:00:29.063Z,16.90
2022-07-28T08:01:16.959Z,16.97
2022-07-28T08:02:15.990Z,17.04
2022-07-28T08:03:15.888Z,17.11
2022-07-28T08:04:16.250Z,17.19
2022-07-28T08:05:15.882Z,17.26
2022-07-28T08:06:15.854Z,17.34
2022-07-28T08:07:15.840Z,17.48
2022-07-28T08:08:15.835Z,17.54
2022-07-28T08:09:15.854Z,17.59
2022-07-28T08:10:15.845Z,17.67
2022-07-28T08:11:15.786Z,17.72
2022-07-28T08:12:15.794Z,17.80
2022-07-28T08:13:15.766Z,17.89
2022-07-28T08:14:16.166Z,17.95
2022-07-28T08:15:15.754Z,17.97
2022-07-28T08:16:15.880Z,18.04
2022-07-28T08:17:15.728Z,18.07
2022-07-28T08:18:15.720Z,18.15
2022-07-28T08:19:15.708Z,18.13
2022-07-28T08:20:16.728Z,18.15
2022-07-28T08:21:15.678Z,18.16
2022-07-28T08:22:15.687Z,18.23
2022-07-28T08:23:15.667Z,18.33
2022-07-28T08:24:27.585Z,18.38
2022-07-28T08:25:16.626Z,18.41
2022-07-28T08:26:15.637Z,18.47
2022-07-28T08:27:15.618Z,18.43
2022-07-28T08:28:15.608Z,18.45
2022-07-28T08:29:15.603Z,18.52
2022-07-28T08:30:16.994Z,18.60
2022-07-28T08:31:16.622Z,18.71
2022-07-28T08:32:15.558Z,18.86
2022-07-28T08:33:15.546Z,18.93
2022-07-28T08:34:26.325Z,19.12
2022-07-28T08:35:32.885Z,19.18
2022-07-28T08:36:16.531Z,19.27
2022-07-28T08:37:15.500Z,19.37
2022-07-28T08:38:15.492Z,19.44
2022-07-28T08:39:15.491Z,19.48
2022-07-28T08:40:15.458Z,19.52
2022-07-28T08:41:15.479Z,19.55
2022-07-28T08:42:15.431Z,19.49
2022-07-28T08:43:15.441Z,19.45
2022-07-28T08:44:15.843Z,19.49
2022-07-28T08:45:15.435Z,19.59
2022-07-28T08:46:15.442Z,19.70
2022-07-28T08:47:15.410Z,19.81
2022-07-28T08:48:15.382Z,19.94
2022-07-28T08:49:15.421Z,20.03
2022-07-28T08:50:15.351Z,20.07
2022-07-28T08:51:15.373Z,20.06
2022-07-28T08:52:15.334Z,19.99
2022-07-28T08:53:15.344Z,20.00
2022-07-28T08:54:15.666Z,20.09
2022-07-28T08:55:19.544Z,20.14
2022-07-28T08:56:15.420Z,20.22
2022-07-28T08:57:15.283Z,20.21
2022-07-28T08:58:15.263Z,20.19
2022-07-28T08:59:15.254Z,20.24
2022-07-28T09:00:15.251Z,20.34
2022-07-28T09:01:15.314Z,20.36
2022-07-28T09:02:15.328Z,20.43
2022-07-28T09:03:15.277Z,20.55
2022-07-28T09:04:15.720Z,20.63
2022-07-28T09:05:15.205Z,20.65
2022-07-28T09:06:15.183Z,20.69
2022-07-28T09:07:15.182Z,20.62
2022-07-28T09:08:15.167Z,20.67
2022-07-28T09:09:15.147Z,20.56
2022-07-28T09:10:15.135Z,20.66
2022-07-28T09:11:15.127Z,20.70
2022-07-28T09:12:15.123Z,20.80
2022-07-28T09:13:15.115Z,20.82
2022-07-28T09:14:15.461Z,20.95
2022-07-28T09:15:15.119Z,21.12
2022-07-28T09:16:15.089Z,21.24
2022-07-28T09:17:15.068Z,21.32
2022-07-28T09:18:15.062Z,21.37
2022-07-28T09:19:15.035Z,21.45
2022-07-28T09:20:15.007Z,21.55
2022-07-28T09:21:15.007Z,21.55
2022-07-28T09:22:14.999Z,21.50
2022-07-28T09:23:42.614Z,21.54
2022-07-28T09:24:16.357Z,21.66
2022-07-28T09:25:14.967Z,21.73
2022-07-28T09:26:14.951Z,21.85
2022-07-28T09:27:14.961Z,21.89
2022-07-28T09:28:14.961Z,21.82
2022-07-28T09:29:14.931Z,21.76
2022-07-28T09:30:14.910Z,21.62
2022-07-28T09:31:14.969Z,21.57
2022-07-28T09:32:14.879Z,21.52
2022-07-28T09:33:41.828Z,21.51
2022-07-28T09:34:16.112Z,21.66
2022-07-28T09:35:14.859Z,21.72
2022-07-28T09:36:14.839Z,21.76
2022-07-28T09:37:14.840Z,21.54
2022-07-28T09:38:14.813Z,21.29
2022-07-28T09:39:14.831Z,21.24
2022-07-28T09:40:14.801Z,21.30
2022-07-28T09:41:14.794Z,21.43
2022-07-28T09:42:14.772Z,21.54
2022-07-28T09:43:14.763Z,21.66
2022-07-28T09:44:15.193Z,21.77
2022-07-28T09:45:23.654Z,21.82
2022-07-28T09:46:15.852Z,21.88
2022-07-28T09:47:15.300Z,21.93
2022-07-28T09:48:14.892Z,22.02
2022-07-28T09:49:14.912Z,22.06
2022-07-28T09:50:14.683Z,22.11
2022-07-28T09:51:14.685Z,22.22
2022-07-28T09:52:14.656Z,22.25
2022-07-28T09:53:14.665Z,22.33
2022-07-28T09:54:15.107Z,22.41
2022-07-28T09:55:14.643Z,22.51
2022-07-28T09:56:14.616Z,22.54
2022-07-28T09:57:14.859Z,22.63
2022-07-28T09:58:14.596Z,22.83
2022-07-28T09:59:16.082Z,22.90
2022-07-28T10:00:14.576Z,22.99
2022-07-28T10:01:14.623Z,23.03
2022-07-28T10:02:14.711Z,23.15
2022-07-28T10:03:14.582Z,23.31
2022-07-28T10:04:14.852Z,23.28
2022-07-28T10:05:14.674Z,23.12
2022-07-28T10:06:14.502Z,23.12
2022-07-28T10:07:14.507Z,23.09
2022-07-28T10:08:14.477Z,23.05
2022-07-28T10:09:14.486Z,23.02
2022-07-28T10:10:14.504Z,22.94
2022-07-28T10:11:14.468Z,23.02
2022-07-28T10:12:14.459Z,23.13
2022-07-28T10:13:14.433Z,23.21
2022-07-28T10:14:14.645Z,23.18
2022-07-28T10:15:14.582Z,23.05
2022-07-28T10:16:14.423Z,22.90
2022-07-28T10:17:14.380Z,22.91
2022-07-28T10:18:14.359Z,23.10
2022-07-28T10:19:14.365Z,23.23
2022-07-28T10:20:14.380Z,23.37
2022-07-28T10:21:14.340Z,23.43
2022-07-28T10:22:14.321Z,23.51
2022-07-28T10:23:14.334Z,23.58
2022-07-28T10:24:14.720Z,23.76
2022-07-28T10:25:14.313Z,23.95
2022-07-28T10:26:14.272Z,24.05
2022-07-28T10:27:15.099Z,23.78
2022-07-28T10:28:14.259Z,23.39
2022-07-28T10:29:14.252Z,23.20
2022-07-28T10:30:14.304Z,23.23
2022-07-28T10:31:14.309Z,23.24
2022-07-28T10:32:14.213Z,23.28
2022-07-28T10:33:14.204Z,23.23
2022-07-28T10:34:16.358Z,23.20
2022-07-28T10:35:14.185Z,23.13
2022-07-28T10:36:14.172Z,23.09
2022-07-28T10:37:14.165Z,23.00
2022-07-28T10:38:14.179Z,22.94
2022-07-28T10:39:14.144Z,22.83
2022-07-28T10:40:14.137Z,22.73
2022-07-28T10:41:14.137Z,22.68
2022-07-28T10:42:14.104Z,22.80
2022-07-28T10:43:14.096Z,22.99
2022-07-28T10:44:14.615Z,23.17
2022-07-28T10:45:14.078Z,23.48
2022-07-28T10:46:16.223Z,23.69
2022-07-28T10:47:18.275Z,23.80
2022-07-28T10:48:15.037Z,23.78
2022-07-28T10:49:14.071Z,23.68
2022-07-28T10:50:14.029Z,23.65
2022-07-28T10:51:14.017Z,23.48
2022-07-28T10:52:30.727Z,23.12
2022-07-28T10:53:14.988Z,22.94
2022-07-28T10:54:17.736Z,23.02
2022-07-28T10:55:14.970Z,23.17
2022-07-28T10:56:14.953Z,23.31
2022-07-28T10:57:13.968Z,23.56
2022-07-28T10:58:13.932Z,23.74
2022-07-28T10:59:13.943Z,23.92
2022-07-28T11:00:20.368Z,24.13
2022-07-28T11:01:32.536Z,24.35
2022-07-28T11:02:14.934Z,24.50
2022-07-28T11:03:14.448Z,24.61
2022-07-28T11:04:14.229Z,24.76
2022-07-28T11:05:13.873Z,24.88
2022-07-28T11:06:13.833Z,25.01
2022-07-28T11:07:13.833Z,25.04
2022-07-28T11:08:13.817Z,25.22
2022-07-28T11:09:13.880Z,25.23
2022-07-28T11:10:13.838Z,25.13
2022-07-28T11:11:13.781Z,24.86
2022-07-28T11:12:13.762Z,24.61
2022-07-28T11:13:14.385Z,24.40
2022-07-28T11:14:13.976Z,24.21
2022-07-28T11:15:18.216Z,24.14
2022-07-28T11:16:14.852Z,24.03
2022-07-28T11:17:13.749Z,23.95
2022-07-28T11:18:13.706Z,24.02
2022-07-28T11:19:40.716Z,24.14
2022-07-28T11:20:16.867Z,24.18
2022-07-28T11:21:16.545Z,24.30
2022-07-28T11:22:13.665Z,24.43
2022-07-28T11:23:13.645Z,24.65
2022-07-28T11:24:17.916Z,24.69
2022-07-28T11:25:20.914Z,24.70
2022-07-28T11:26:14.605Z,24.66
2022-07-28T11:27:13.606Z,24.58
2022-07-28T11:28:13.597Z,24.29
2022-07-28T11:29:13.587Z,23.96
2022-07-28T11:30:13.644Z,23.77
2022-07-28T11:31:13.650Z,23.71
2022-07-28T11:32:13.550Z,23.77
2022-07-28T11:33:13.537Z,23.95
2022-07-28T11:34:13.789Z,24.17
2022-07-28T11:35:13.529Z,24.18
2022-07-28T11:36:13.518Z,24.06
2022-07-28T11:37:15.251Z,24.05
2022-07-28T11:38:13.481Z,24.10
2022-07-28T11:39:13.489Z,24.21
2022-07-28T11:40:13.462Z,24.39
2022-07-28T11:41:13.482Z,24.57
2022-07-28T11:42:13.438Z,24.54
2022-07-28T11:43:13.430Z,24.53
2022-07-28T11:44:13.703Z,24.54
2022-07-28T11:45:13.429Z,24.40
2022-07-28T11:46:13.480Z,24.48
2022-07-28T11:47:13.394Z,24.65
2022-07-28T11:48:13.362Z,24.66
2022-07-28T11:49:14.677Z,24.43
2022-07-28T11:50:13.431Z,24.06
2022-07-28T11:51:13.387Z,23.95
2022-07-28T11:52:13.342Z,23.86
2022-07-28T11:53:13.333Z,23.83
2022-07-28T11:54:13.564Z,23.88
2022-07-28T11:55:13.294Z,24.11
2022-07-28T11:56:13.903Z,24.32
2022-07-28T11:57:13.782Z,24.51
2022-07-28T11:58:13.275Z,24.77
2022-07-28T11:59:13.278Z,24.89
2022-07-28T12:00:13.234Z,25.01
2022-07-28T12:01:17.332Z,25.06
2022-07-28T12:02:14.295Z,25.04
2022-07-28T12:03:13.226Z,24.92
2022-07-28T12:04:13.976Z,24.63
2022-07-28T12:05:13.254Z,24.55
2022-07-28T12:06:13.178Z,24.66
2022-07-28T12:07:13.188Z,24.81
2022-07-28T12:08:13.159Z,24.74
2022-07-28T12:09:13.238Z,24.58
2022-07-28T12:10:21.495Z,24.47
2022-07-28T12:11:14.127Z,24.60
2022-07-28T12:12:13.118Z,24.77
2022-07-28T12:13:13.110Z,24.95
2022-07-28T12:14:13.566Z,25.04
2022-07-28T12:15:13.078Z,25.14
2022-07-28T12:16:13.235Z,24.95
2022-07-28T12:17:13.116Z,24.92
2022-07-28T12:18:13.053Z,24.92
2022-07-28T12:19:13.042Z,25.03
2022-07-28T12:20:13.405Z,25.16
2022-07-28T12:21:13.030Z,25.32
2022-07-28T12:22:15.760Z,25.43
2022-07-28T12:23:12.989Z,25.46
2022-07-28T12:24:12.970Z,25.33
2022-07-28T12:25:13.471Z,25.29
2022-07-28T12:26:12.942Z,25.22
2022-07-28T12:27:13.022Z,25.18
2022-07-28T12:28:12.930Z,25.29
2022-07-28T12:29:12.968Z,25.31
2022-07-28T12:30:12.902Z,25.14
2022-07-28T12:31:12.908Z,24.91
2022-07-28T12:32:12.946Z,24.88
2022-07-28T12:33:12.894Z,24.93
2022-07-28T12:34:13.166Z,25.01
2022-07-28T12:35:12.855Z,25.16
2022-07-28T12:36:12.834Z,25.38
2022-07-28T12:37:12.834Z,25.54
2022-07-28T12:38:12.827Z,25.62
2022-07-28T12:39:13.380Z,25.77
2022-07-28T12:40:12.820Z,25.83
2022-07-28T12:41:12.811Z,25.88
2022-07-28T12:42:12.817Z,25.98
2022-07-28T12:43:12.768Z,26.02
2022-07-28T12:44:13.048Z,26.07
2022-07-28T12:45:12.796Z,26.00
2022-07-28T12:46:12.800Z,25.85
2022-07-28T12:47:13.130Z,25.75
2022-07-28T12:48:12.726Z,25.60
2022-07-28T12:49:12.870Z,25.62
2022-07-28T12:50:12.710Z,25.72
2022-07-28T12:51:12.678Z,25.83
2022-07-28T12:52:12.731Z,25.88